createdAt,value
2022-12-31T00:00:41.542Z,91.60
2022-12-31T00:03:50.898Z,91.40
2022-12-31T00:06:59.911Z,91.50
2022-12-31T00:14:54.481Z,92.00
2022-12-31T00:18:03.856Z,92.10
2022-12-31T00:21:13.333Z,92.10
2022-12-31T00:24:22.407Z,91.90
2022-12-31T00:27:32.338Z,91.50
2022-12-31T00:30:42.840Z,91.40
2022-12-31T00:33:52.248Z,91.60
2022-12-31T00:37:01.244Z,91.70
2022-12-31T00:40:11.985Z,92.10
2022-12-31T00:43:21.148Z,92.50
2022-12-31T00:46:31.855Z,93.00
2022-12-31T00:49:40.798Z,93.60
2022-12-31T00:52:49.674Z,93.60
2022-12-31T00:56:02.349Z,93.50
2022-12-31T00:59:11.443Z,93.50
2022-12-31T01:02:21.877Z,93.50
2022-12-31T01:05:32.318Z,93.50
2022-12-31T01:08:41.411Z,93.30
2022-12-31T01:11:52.716Z,92.30
2022-12-31T01:15:03.795Z,91.30
2022-12-31T01:18:14.426Z,90.90
2022-12-31T01:21:23.879Z,90.90
2022-12-31T01:24:32.759Z,90.80
2022-12-31T01:27:41.584Z,90.60
2022-12-31T01:30:50.474Z,89.90
2022-12-31T01:34:00.754Z,89.60
2022-12-31T01:37:09.602Z,89.40
2022-12-31T01:40:18.569Z,87.20
2022-12-31T01:43:44.771Z,85.50
2022-12-31T01:46:56.812Z,85.50
2022-12-31T01:50:12.872Z,84.80
2022-12-31T01:53:22.313Z,83.90
2022-12-31T01:56:31.518Z,82.90
2022-12-31T01:59:40.720Z,82.20
2022-12-31T02:02:49.780Z,80.80
2022-12-31T02:06:05.944Z,80.80
2022-12-31T02:09:14.928Z,80.20
2022-12-31T02:12:24.166Z,79.00
2022-12-31T02:15:44.347Z,79.00
2022-12-31T02:19:00.747Z,78.30
2022-12-31T02:22:19.048Z,78.30
2022-12-31T02:25:52.485Z,77.90
2022-12-31T02:29:27.635Z,77.30
2022-12-31T02:33:09.361Z,77.20
2022-12-31T02:36:22.597Z,76.50
2022-12-31T02:39:32.437Z,74.60
2022-12-31T02:42:41.396Z,74.30
2022-12-31T02:46:00.109Z,73.70
2022-12-31T02:49:17.327Z,74.20
2022-12-31T02:52:39.307Z,74.70
2022-12-31T02:55:53.672Z,75.30
2022-12-31T02:59:25.488Z,75.20
2022-12-31T03:02:36.750Z,74.80
2022-12-31T03:05:49.513Z,74.00
2022-12-31T03:09:16.466Z,73.60
2022-12-31T03:12:45.446Z,72.60
2022-12-31T03:15:54.448Z,73.70
2022-12-31T03:19:21.179Z,74.10
2022-12-31T03:22:31.735Z,73.90
2022-12-31T03:25:40.801Z,74.20
2022-12-31T03:28:49.576Z,73.90
2022-12-31T03:31:58.453Z,74.10
2022-12-31T03:35:09.101Z,74.00
2022-12-31T03:38:20.645Z,73.10
2022-12-31T03:41:29.481Z,73.00
2022-12-31T03:44:38.382Z,73.20
2022-12-31T03:47:47.840Z,73.50
2022-12-31T03:50:56.794Z,73.90
2022-12-31T03:54:07.107Z,74.10
2022-12-31T03:57:16.021Z,74.40
2022-12-31T04:00:25.361Z,74.70
2022-12-31T04:03:34.366Z,74.50
2022-12-31T04:06:43.248Z,74.40
2022-12-31T04:09:53.605Z,74.30
2022-12-31T04:13:04.782Z,73.80
2022-12-31T04:16:13.922Z,73.80
2022-12-31T04:19:23.214Z,73.80
2022-12-31T04:22:32.158Z,73.80
2022-12-31T04:25:42.511Z,74.30
2022-12-31T04:28:53.013Z,74.60
2022-12-31T04:32:02.113Z,74.80
2022-12-31T04:35:12.502Z,74.60
2022-12-31T04:38:21.401Z,74.40
2022-12-31T04:41:31.669Z,73.90
2022-12-31T04:44:40.504Z,73.90
2022-12-31T04:47:49.547Z,74.00
2022-12-31T04:50:58.431Z,73.70
2022-12-31T04:54:07.545Z,73.50
2022-12-31T04:57:17.772Z,73.70
2022-12-31T05:00:26.579Z,73.80
2022-12-31T05:03:35.708Z,73.60
2022-12-31T05:06:44.594Z,73.50
2022-12-31T05:09:53.379Z,73.30
2022-12-31T05:13:03.783Z,73.60
2022-12-31T05:16:13.222Z,73.40
2022-12-31T05:19:22.272Z,73.60
2022-12-31T05:22:31.104Z,73.60
2022-12-31T05:25:40.349Z,73.60
2022-12-31T05:28:50.749Z,73.20
2022-12-31T05:31:59.677Z,73.20
2022-12-31T05:35:09.865Z,72.70
2022-12-31T05:38:18.988Z,72.90
2022-12-31T05:41:27.899Z,73.10
2022-12-31T05:44:38.145Z,73.30
2022-12-31T05:47:47.291Z,72.50
2022-12-31T05:50:58.126Z,72.60
2022-12-31T05:54:07.251Z,72.60
2022-12-31T05:57:16.385Z,72.60
2022-12-31T06:00:26.566Z,72.70
2022-12-31T06:03:35.602Z,72.60
2022-12-31T06:06:44.522Z,72.60
2022-12-31T06:09:53.462Z,72.60
2022-12-31T06:13:02.305Z,72.50
2022-12-31T06:16:13.127Z,72.50
2022-12-31T06:19:22.004Z,72.40
2022-12-31T06:22:30.921Z,72.40
2022-12-31T06:25:39.795Z,72.40
2022-12-31T06:28:48.833Z,72.00
2022-12-31T06:31:58.913Z,71.50
2022-12-31T06:35:08.866Z,71.90
2022-12-31T06:38:17.710Z,71.50
2022-12-31T06:41:26.624Z,71.20
2022-12-31T06:44:36.006Z,71.50
2022-12-31T06:47:46.484Z,71.40
2022-12-31T06:50:55.440Z,70.60
2022-12-31T06:54:04.370Z,71.10
2022-12-31T06:57:13.944Z,70.80
2022-12-31T07:00:24.291Z,70.30
2022-12-31T07:03:40.837Z,70.60
2022-12-31T07:06:53.612Z,70.20
2022-12-31T07:10:10.182Z,70.70
2022-12-31T07:13:43.623Z,69.90
2022-12-31T07:17:04.564Z,70.00
2022-12-31T07:20:18.578Z,70.30
2022-12-31T07:23:28.009Z,69.90
2022-12-31T07:26:58.518Z,69.90
2022-12-31T07:30:12.449Z,70.00
2022-12-31T07:33:39.791Z,69.70
2022-12-31T07:37:02.535Z,69.20
2022-12-31T07:40:18.867Z,69.40
2022-12-31T07:43:34.406Z,69.50
2022-12-31T07:46:52.819Z,68.90
2022-12-31T07:50:02.188Z,68.80
2022-12-31T07:53:13.033Z,68.50
2022-12-31T07:56:21.830Z,68.30
2022-12-31T07:59:45.608Z,68.10
2022-12-31T08:03:12.675Z,68.30
2022-12-31T08:06:32.885Z,68.50
2022-12-31T08:09:52.331Z,67.80
2022-12-31T08:13:04.108Z,68.40
2022-12-31T08:16:17.043Z,67.70
2022-12-31T08:19:28.698Z,67.70
2022-12-31T08:22:49.413Z,67.30
2022-12-31T08:26:16.129Z,66.60
2022-12-31T08:29:34.992Z,66.90
2022-12-31T08:32:49.742Z,66.20
2022-12-31T08:36:12.028Z,65.80
2022-12-31T08:39:32.623Z,65.70
2022-12-31T08:42:52.714Z,65.30
2022-12-31T08:46:02.084Z,65.30
2022-12-31T08:49:11.821Z,64.40
2022-12-31T08:52:25.354Z,65.00
2022-12-31T08:55:35.025Z,64.00
2022-12-31T08:58:52.916Z,63.60
2022-12-31T09:02:31.613Z,63.20
2022-12-31T09:05:54.031Z,63.20
2022-12-31T09:09:11.450Z,63.30
2022-12-31T09:12:25.464Z,63.30
2022-12-31T09:15:42.493Z,62.80
2022-12-31T09:18:54.517Z,62.40
2022-12-31T09:22:06.652Z,61.80
2022-12-31T09:25:16.763Z,61.70
2022-12-31T09:28:39.006Z,60.70
2022-12-31T09:31:57.636Z,60.50
2022-12-31T09:35:13.625Z,60.20
2022-12-31T09:38:28.962Z,58.60
2022-12-31T09:42:14.132Z,58.70
2022-12-31T09:45:54.991Z,57.80
2022-12-31T09:49:36.796Z,57.70
2022-12-31T09:53:07.743Z,55.90
2022-12-31T09:56:23.833Z,55.50
2022-12-31T09:59:41.045Z,55.60
2022-12-31T10:03:41.671Z,55.10
2022-12-31T10:07:01.772Z,53.20
2022-12-31T10:10:19.206Z,53.30
2022-12-31T10:13:52.478Z,53.30
2022-12-31T10:17:12.426Z,53.50
2022-12-31T10:20:46.956Z,50.70
2022-12-31T10:24:11.908Z,51.10
2022-12-31T10:27:48.163Z,51.30
2022-12-31T10:31:11.219Z,50.80
2022-12-31T10:34:27.330Z,49.70
2022-12-31T10:37:44.370Z,50.30
2022-12-31T10:41:26.261Z,48.60
2022-12-31T10:45:24.006Z,47.90
2022-12-31T10:49:08.721Z,48.00
2022-12-31T10:53:01.104Z,46.60
2022-12-31T10:56:54.881Z,47.80
2022-12-31T11:00:16.640Z,46.60
2022-12-31T11:04:07.846Z,45.90
2022-12-31T11:07:47.005Z,46.10
2022-12-31T11:11:17.102Z,46.60
2022-12-31T11:15:17.731Z,45.50
2022-12-31T11:18:34.603Z,45.40
2022-12-31T11:21:55.903Z,42.70
2022-12-31T11:25:22.654Z,42.60
2022-12-31T11:29:08.932Z,42.60
2022-12-31T11:32:34.434Z,42.40
2022-12-31T11:35:57.955Z,42.10
2022-12-31T11:39:31.062Z,42.20
2022-12-31T11:42:47.645Z,42.30
2022-12-31T11:46:44.995Z,41.90
2022-12-31T11:50:15.355Z,40.70
2022-12-31T11:53:41.221Z,39.30
2022-12-31T11:56:59.147Z,39.00
2022-12-31T12:00:16.833Z,39.90
2022-12-31T12:03:25.768Z,38.40
2022-12-31T12:06:36.359Z,38.60
2022-12-31T12:09:46.760Z,38.90
2022-12-31T12:12:58.298Z,38.60
2022-12-31T12:16:09.345Z,38.80
2022-12-31T12:19:19.591Z,38.70
2022-12-31T12:22:31.541Z,38.60
2022-12-31T12:25:43.094Z,38.10
2022-12-31T12:28:52.367Z,38.40
2022-12-31T12:32:04.642Z,37.50
2022-12-31T12:35:20.757Z,36.00
2022-12-31T12:38:31.855Z,36.60
2022-12-31T12:41:40.723Z,36.90
2022-12-31T12:44:50.085Z,37.70
2022-12-31T12:48:02.291Z,36.80
2022-12-31T12:51:24.678Z,36.70
2022-12-31T12:54:50.731Z,37.30
2022-12-31T12:58:07.984Z,37.70
2022-12-31T13:01:27.289Z,37.10
2022-12-31T13:04:50.786Z,36.80
2022-12-31T13:08:09.200Z,37.50
2022-12-31T13:11:31.869Z,36.70
2022-12-31T13:14:50.011Z,38.20
2022-12-31T13:18:06.188Z,37.80
2022-12-31T13:21:34.617Z,38.60
2022-12-31T13:24:57.600Z,37.80
2022-12-31T13:28:16.585Z,38.00
2022-12-31T13:31:31.271Z,38.20
2022-12-31T13:34:43.096Z,39.00
2022-12-31T13:37:57.768Z,36.20
2022-12-31T13:41:14.551Z,37.40
2022-12-31T13:44:30.565Z,36.80
2022-12-31T13:47:44.432Z,36.80
2022-12-31T13:51:01.501Z,36.90
2022-12-31T13:54:23.146Z,37.20
2022-12-31T13:57:42.931Z,38.50
2022-12-31T14:00:59.748Z,38.10
2022-12-31T14:04:15.763Z,37.10
2022-12-31T14:07:37.624Z,37.40
2022-12-31T14:11:00.491Z,38.20
2022-12-31T14:14:16.815Z,37.90
2022-12-31T14:17:32.938Z,37.70
2022-12-31T14:20:49.543Z,38.40
2022-12-31T14:24:08.043Z,39.90
2022-12-31T14:27:21.647Z,38.40
2022-12-31T14:30:34.406Z,38.90
2022-12-31T14:33:54.296Z,38.60
2022-12-31T14:37:08.846Z,38.90
2022-12-31T14:40:23.636Z,38.90
2022-12-31T14:43:41.407Z,38.80
2022-12-31T14:47:06.758Z,39.40
2022-12-31T14:50:21.919Z,39.20
2022-12-31T14:53:31.676Z,38.90
2022-12-31T14:56:44.743Z,39.50
2022-12-31T14:59:56.529Z,39.80
2022-12-31T15:03:07.778Z,39.40
2022-12-31T15:08:13.274Z,39.50
2022-12-31T15:11:48.185Z,40.20
2022-12-31T15:15:10.831Z,39.70
2022-12-31T15:18:33.378Z,39.10
2022-12-31T15:22:00.302Z,38.90
2022-12-31T15:25:28.140Z,38.80
2022-12-31T15:28:39.289Z,39.10
2022-12-31T15:31:49.328Z,38.70
2022-12-31T15:35:03.258Z,38.30
2022-12-31T15:38:30.229Z,38.60
2022-12-31T15:42:10.371Z,39.10
2022-12-31T15:45:21.221Z,38.30
2022-12-31T15:48:38.883Z,38.50
2022-12-31T15:51:53.825Z,38.80
2022-12-31T15:55:07.376Z,38.20
2022-12-31T15:58:20.433Z,38.30
2022-12-31T16:01:32.439Z,37.90
2022-12-31T16:04:44.428Z,37.70
2022-12-31T16:07:56.097Z,37.60
2022-12-31T16:11:06.199Z,38.20
2022-12-31T16:14:21.780Z,38.20
2022-12-31T16:17:33.684Z,38.70
2022-12-31T16:20:44.690Z,38.90
2022-12-31T16:23:54.765Z,39.40
2022-12-31T16:27:07.833Z,40.00
2022-12-31T16:30:25.235Z,40.20
2022-12-31T16:33:34.690Z,40.00
2022-12-31T16:36:43.924Z,40.30
2022-12-31T16:40:19.352Z,40.30
2022-12-31T16:43:30.165Z,40.20
2022-12-31T16:46:42.634Z,40.20
2022-12-31T16:49:58.236Z,40.20
2022-12-31T16:53:08.838Z,40.30
2022-12-31T16:56:04.437Z,40.10
2022-12-31T16:59:00.210Z,39.60
2022-12-31T17:01:50.643Z,39.30
2022-12-31T17:04:45.946Z,38.90
2022-12-31T17:07:42.003Z,38.10
2022-12-31T17:10:36.514Z,37.80
2022-12-31T17:13:30.848Z,37.70
2022-12-31T17:16:19.964Z,37.50
2022-12-31T17:19:33.913Z,37.60
2022-12-31T17:22:34.365Z,36.70
2022-12-31T17:25:27.518Z,36.40
2022-12-31T17:28:23.831Z,36.50
2022-12-31T17:31:32.120Z,37.60
2022-12-31T17:34:24.509Z,37.40
2022-12-31T17:37:19.603Z,37.60
2022-12-31T17:40:54.414Z,38.10
2022-12-31T17:43:43.546Z,38.70
2022-12-31T17:46:34.832Z,39.40
2022-12-31T17:49:30.592Z,39.80
2022-12-31T17:52:19.117Z,39.80
2022-12-31T17:55:07.930Z,39.90
2022-12-31T17:57:58.497Z,39.20
2022-12-31T18:00:47.246Z,39.10
2022-12-31T18:03:35.995Z,38.30
2022-12-31T18:06:26.663Z,37.90
2022-12-31T18:09:15.935Z,37.90
2022-12-31T18:12:06.798Z,38.00
2022-12-31T18:14:55.250Z,38.40
2022-12-31T18:17:44.411Z,38.70
2022-12-31T18:20:33.051Z,38.60
2022-12-31T18:23:26.393Z,38.60
2022-12-31T18:26:16.135Z,38.30
2022-12-31T18:29:15.185Z,38.10
2022-12-31T18:32:04.457Z,39.20
2022-12-31T18:34:53.157Z,39.70
2022-12-31T18:37:41.637Z,39.70
2022-12-31T18:40:32.623Z,39.70
2022-12-31T18:43:21.540Z,39.50
2022-12-31T18:46:12.938Z,40.60
2022-12-31T18:49:01.679Z,40.60
2022-12-31T18:51:54.076Z,41.10
2022-12-31T18:54:43.487Z,41.30
2022-12-31T18:57:33.585Z,41.20
2022-12-31T19:00:22.371Z,40.50
2022-12-31T19:03:15.827Z,39.70
2022-12-31T19:06:04.563Z,39.70
2022-12-31T19:08:53.587Z,39.80
2022-12-31T19:11:42.801Z,39.80
2022-12-31T19:14:32.770Z,39.30
2022-12-31T19:17:21.761Z,39.10
2022-12-31T19:20:10.774Z,39.30
2022-12-31T19:22:59.484Z,39.30
2022-12-31T19:25:49.200Z,39.20
2022-12-31T19:28:37.909Z,39.20
2022-12-31T19:31:28.012Z,38.80
2022-12-31T19:34:16.897Z,39.60
2022-12-31T19:37:05.390Z,39.60
2022-12-31T19:39:54.096Z,39.60
2022-12-31T19:42:43.787Z,39.60
2022-12-31T19:45:32.411Z,39.70
2022-12-31T19:48:30.474Z,39.50
2022-12-31T19:51:22.603Z,39.50
2022-12-31T19:54:29.545Z,39.70
2022-12-31T19:57:36.480Z,39.70
2022-12-31T20:00:51.553Z,39.10
2022-12-31T20:04:05.405Z,39.70
2022-12-31T20:07:14.493Z,38.90
2022-12-31T20:10:23.350Z,39.90
2022-12-31T20:13:32.465Z,40.00
2022-12-31T20:16:41.397Z,39.50
2022-12-31T20:19:52.110Z,39.40
2022-12-31T20:23:01.043Z,39.20
2022-12-31T20:26:10.853Z,39.20
2022-12-31T20:29:20.005Z,39.20
2022-12-31T20:32:28.903Z,40.10
2022-12-31T20:35:39.119Z,40.40
2022-12-31T20:38:49.413Z,40.10
2022-12-31T20:41:58.249Z,39.70
2022-12-31T20:45:09.125Z,39.50
2022-12-31T20:48:17.968Z,39.50
2022-12-31T20:51:29.632Z,40.20
2022-12-31T20:54:38.547Z,40.50
2022-12-31T20:57:47.398Z,40.80
2022-12-31T21:00:56.386Z,40.90
2022-12-31T21:04:06.887Z,41.50
2022-12-31T21:07:17.576Z,41.40
2022-12-31T21:10:26.475Z,41.70
2022-12-31T21:13:35.640Z,41.70
2022-12-31T21:16:44.519Z,41.50
2022-12-31T21:19:53.550Z,42.00
2022-12-31T21:23:04.095Z,41.50
2022-12-31T21:26:13.157Z,42.00
2022-12-31T21:29:22.311Z,41.10
2022-12-31T21:32:31.201Z,41.90
2022-12-31T21:35:44.561Z,42.40
2022-12-31T21:38:59.032Z,42.30
2022-12-31T21:42:07.892Z,42.40
2022-12-31T21:45:16.770Z,42.70
2022-12-31T21:48:25.722Z,42.30
2022-12-31T21:51:54.835Z,42.40
2022-12-31T21:55:24.554Z,41.90
2022-12-31T21:58:33.576Z,41.70
2022-12-31T22:02:00.261Z,42.10
2022-12-31T22:05:18.532Z,42.30
2022-12-31T22:08:31.864Z,42.40
2022-12-31T22:11:42.092Z,43.00
2022-12-31T22:15:14.821Z,44.20
2022-12-31T22:18:20.018Z,44.40
2022-12-31T22:21:28.905Z,44.40
2022-12-31T22:24:37.790Z,45.40
2022-12-31T22:28:11.688Z,45.30
2022-12-31T22:31:19.474Z,45.00
2022-12-31T22:34:28.444Z,44.60
2022-12-31T22:41:08.378Z,44.60
2022-12-31T22:44:18.647Z,44.50
2022-12-31T22:47:27.653Z,44.60
2022-12-31T22:50:36.517Z,44.60
2022-12-31T22:53:46.062Z,44.50
2022-12-31T22:56:55.106Z,44.50
2022-12-31T23:00:10.124Z,45.20
2022-12-31T23:03:19.628Z,44.50
2022-12-31T23:06:29.015Z,44.50
2022-12-31T23:09:55.494Z,44.90
2022-12-31T23:13:21.531Z,43.20
2022-12-31T23:16:49.135Z,43.00
2022-12-31T23:20:15.447Z,42.80
2022-12-31T23:23:25.775Z,42.80
2022-12-31T23:26:34.654Z,43.20
2022-12-31T23:29:47.194Z,42.90
2022-12-31T23:32:57.959Z,42.80
2022-12-31T23:36:08.488Z,42.90
2022-12-31T23:39:17.331Z,42.30
2022-12-31T23:42:26.313Z,42.70
2022-12-31T23:45:36.145Z,43.10
2022-12-31T23:48:46.477Z,43.00
2022-12-31T23:51:55.334Z,42.90
2022-12-31T23:55:04.676Z,42.90
2022-12-31T23:58:13.566Z,42.90
